Time;durP1;ratioP1;P1;durP2;ratioP2;P2;SDS_P1;SDS_P2;PMS_P1;PMS_P2;Temp;Humidity;BMP_temperature;BMP_pressure;BME280_temperature;BME280_humidity;BME280_pressure;Samples;Min_cycle;Max_cycle;Signal;HPM_P1;HPM_P2
2021/08/25 00:01:06;;;;;;;14.75;10.30;;;;;;;14.25;88.85;102866.09;5074888;28;20039;-66
2021/08/25 00:03:32;;;;;;;18.33;11.25;;;;;;;14.22;88.69;102867.06;5074886;28;20067;-65
2021/08/25 00:05:57;;;;;;;16.02;11.48;;;;;;;14.20;89.26;102860.88;5075568;28;20103;-65
2021/08/25 00:08:23;;;;;;;14.98;10.63;;;;;;;14.20;88.52;102862.69;5074299;28;20531;-67
2021/08/25 00:10:48;;;;;;;19.63;11.63;;;;;;;14.16;88.64;102861.88;5074152;28;20058;-65
2021/08/25 00:13:14;;;;;;;17.25;11.70;;;;;;;14.13;88.68;102864.66;5073974;28;20025;-65
2021/08/25 00:15:42;;;;;;;19.35;12.57;;;;;;;14.12;89.09;102862.00;5075661;28;20468;-65
2021/08/25 00:18:08;;;;;;;18.15;12.82;;;;;;;14.09;89.19;102861.19;5074514;28;20035;-66
2021/08/25 00:20:35;;;;;;;17.48;12.30;;;;;;;14.06;89.09;102863.06;5074155;28;20111;-66
2021/08/25 00:23:00;;;;;;;15.10;11.05;;;;;;;14.04;89.15;102852.44;5074328;28;20056;-66
2021/08/25 00:25:27;;;;;;;18.35;12.75;;;;;;;14.02;89.90;102856.06;5075234;28;20089;-66
2021/08/25 00:27:53;;;;;;;16.23;12.93;;;;;;;13.98;89.36;102851.72;5073266;28;20547;-67
2021/08/25 00:30:19;;;;;;;18.35;13.10;;;;;;;13.95;89.48;102855.34;5073980;28;20051;-65
2021/08/25 00:32:44;;;;;;;19.50;13.90;;;;;;;13.95;89.92;102843.81;5074083;28;20059;-65
2021/08/25 00:35:11;;;;;;;22.35;14.15;;;;;;;13.93;89.98;102841.22;5073740;28;20399;-65
2021/08/25 00:37:37;;;;;;;19.60;12.63;;;;;;;13.92;89.50;102844.78;5074966;28;20067;-66
2021/08/25 00:40:03;;;;;;;17.50;12.68;;;;;;;13.89;89.59;102842.22;5073929;28;20021;-65
2021/08/25 00:42:28;;;;;;;19.63;12.63;;;;;;;13.85;89.31;102835.19;5073589;28;20029;-66
2021/08/25 00:44:54;;;;;;;19.65;14.18;;;;;;;13.80;89.84;102835.34;5073254;28;20104;-65
2021/08/25 00:47:19;;;;;;;21.02;13.82;;;;;;;13.77;89.97;102836.28;5074747;28;20024;-66
2021/08/25 00:49:45;;;;;;;20.33;13.43;;;;;;;13.75;89.93;102830.13;5085654;28;20097;-66
2021/08/25 00:52:11;;;;;;;22.17;13.93;;;;;;;13.74;90.31;102824.84;5094221;28;20030;-65
2021/08/25 00:54:36;;;;;;;21.00;14.60;;;;;;;13.72;90.30;102832.00;5093760;28;20024;-66
2021/08/25 00:57:02;;;;;;;21.60;15.30;;;;;;;13.70;90.18;102834.69;5077581;28;20495;-65
2021/08/25 00:59:30;;;;;;;21.23;14.55;;;;;;;13.68;90.45;102831.22;5072542;28;20027;-66
2021/08/25 01:02:13;;;;;;;19.17;13.82;;;;;;;13.67;89.93;102831.22;5073434;28;20037;-66
2021/08/25 01:04:48;;;;;;;24.70;14.85;;;;;;;13.63;90.11;102819.78;5073241;28;20044;-66
2021/08/25 01:07:15;;;;;;;22.67;14.25;;;;;;;13.62;90.09;102819.84;5072724;28;20032;-66
2021/08/25 01:09:41;;;;;;;21.00;15.48;;;;;;;13.58;90.14;102819.03;5074159;28;20051;-66
2021/08/25 01:12:07;;;;;;;23.95;16.05;;;;;;;13.57;90.61;102818.16;5073133;28;20473;-66
2021/08/25 01:14:33;;;;;;;27.50;15.18;;;;;;;13.56;90.04;102820.88;5073201;28;20032;-65
2021/08/25 01:16:59;;;;;;;23.27;14.95;;;;;;;13.55;90.46;102819.13;5072491;28;20023;-66
2021/08/25 01:19:26;;;;;;;21.40;14.77;;;;;;;13.52;90.09;102822.75;5074270;28;20492;-66
2021/08/25 01:21:51;;;;;;;25.05;16.13;;;;;;;13.51;90.17;102823.66;5072691;28;20094;-66
2021/08/25 01:24:18;;;;;;;22.67;16.27;;;;;;;13.46;90.36;102816.72;5073053;28;20025;-65
2021/08/25 01:26:49;;;;;;;25.88;15.80;;;;;;;13.43;90.73;102818.53;5072589;28;20067;-65
2021/08/25 01:29:25;;;;;;;26.52;16.20;;;;;;;13.43;90.74;102815.00;5073839;28;20020;-67
2021/08/25 01:31:52;;;;;;;25.98;15.55;;;;;;;13.42;90.74;102819.44;5072908;28;20058;-64
2021/08/25 01:34:17;;;;;;;24.02;15.18;;;;;;;13.41;90.86;102815.03;5072732;28;20061;-67
2021/08/25 01:36:43;;;;;;;22.63;16.83;;;;;;;13.40;90.92;102817.72;5072778;28;20029;-67
2021/08/25 01:39:08;;;;;;;26.85;15.90;;;;;;;13.37;90.57;102818.66;5073273;28;20031;-65
2021/08/25 01:41:34;;;;;;;24.10;16.73;;;;;;;13.35;90.88;102817.81;5072999;28;20021;-66
2021/08/25 01:44:01;;;;;;;25.45;17.10;;;;;;;13.33;90.80;102813.44;5072806;28;20028;-65
2021/08/25 01:46:30;;;;;;;27.33;17.35;;;;;;;13.33;91.02;102809.00;5072541;28;20028;-66
2021/08/25 01:48:56;;;;;;;25.27;16.80;;;;;;;13.34;91.02;102807.19;5073678;28;20093;-65
2021/08/25 01:51:26;;;;;;;23.73;16.48;;;;;;;13.33;91.19;102805.47;5072542;28;20021;-65
2021/08/25 01:53:52;;;;;;;23.40;16.65;;;;;;;13.32;91.01;102807.22;5072609;28;20100;-65
2021/08/25 01:56:18;;;;;;;22.23;15.60;;;;;;;13.31;90.95;102805.47;5072612;28;20460;-65
2021/08/25 01:58:43;;;;;;;28.05;18.88;;;;;;;13.31;91.05;102802.81;5072256;28;20474;-66
2021/08/25 02:01:08;;;;;;;25.83;18.10;;;;;;;13.28;91.71;102790.47;5072830;28;20126;-66
2021/08/25 02:03:34;;;;;;;26.83;18.23;;;;;;;13.31;91.49;102789.50;5072544;28;20382;-64
2021/08/25 02:05:59;;;;;;;26.60;17.05;;;;;;;13.32;92.07;102782.44;5072487;28;20077;-66
2021/08/25 02:08:24;;;;;;;21.88;16.55;;;;;;;13.31;91.48;102788.66;5072400;28;20024;-64
2021/08/25 02:10:49;;;;;;;25.90;17.55;;;;;;;13.28;91.76;102781.63;5073427;28;20078;-64
2021/08/25 02:13:15;;;;;;;24.63;17.75;;;;;;;13.23;91.50;102773.75;5072289;28;20029;-65
2021/08/25 02:15:40;;;;;;;26.73;16.95;;;;;;;13.21;91.16;102778.25;5072054;28;20021;-66
2021/08/25 02:18:05;;;;;;;27.85;17.35;;;;;;;13.17;91.52;102770.38;5072293;28;20046;-66
2021/08/25 02:20:31;;;;;;;24.48;17.83;;;;;;;13.16;91.42;102771.28;5072283;28;20056;-65
2021/08/25 02:22:56;;;;;;;24.13;16.60;;;;;;;13.14;91.40;102768.66;5073028;28;20097;-64
2021/08/25 02:25:21;;;;;;;25.80;17.92;;;;;;;13.12;91.44;102767.84;5072271;28;20477;-66
2021/08/25 02:27:47;;;;;;;26.42;16.92;;;;;;;13.09;91.21;102762.59;5072221;28;20416;-66
2021/08/25 02:30:12;;;;;;;23.20;17.63;;;;;;;13.09;91.43;102766.13;5074679;28;20024;-64
2021/08/25 02:32:41;;;;;;;27.48;18.70;;;;;;;13.08;91.71;102766.16;5076712;28;20029;-65
2021/08/25 02:35:08;;;;;;;28.17;17.98;;;;;;;13.07;91.50;102757.31;5076355;28;20025;-65
2021/08/25 02:37:33;;;;;;;25.70;18.83;;;;;;;13.09;91.52;102755.50;5076496;28;20086;-65
2021/08/25 02:39:58;;;;;;;34.00;19.08;;;;;;;13.08;91.82;102768.81;5076195;28;20369;-65
2021/08/25 02:42:24;;;;;;;30.30;18.67;;;;;;;13.08;91.76;102761.72;5077064;28;20032;-67
2021/08/25 02:44:49;;;;;;;31.70;20.40;;;;;;;13.09;91.76;102759.91;5075656;28;20064;-65
2021/08/25 02:47:14;;;;;;;31.45;20.65;;;;;;;13.12;92.55;102757.19;5075705;28;20029;-65
2021/08/25 02:49:40;;;;;;;31.95;20.45;;;;;;;13.13;92.29;102761.59;5075997;28;20025;-65
2021/08/25 02:52:05;;;;;;;34.10;22.23;;;;;;;13.18;92.53;102751.69;5076335;28;20032;-65
2021/08/25 02:54:30;;;;;;;30.25;20.75;;;;;;;13.21;92.35;102745.44;5076941;28;20032;-66
2021/08/25 02:56:56;;;;;;;40.25;23.52;;;;;;;13.26;92.57;102748.84;5075733;28;20040;-65
2021/08/25 02:59:22;;;;;;;44.78;24.55;;;;;;;13.31;92.81;102748.75;5075754;28;20485;-63
2021/08/25 03:01:47;;;;;;;39.08;22.50;;;;;;;13.34;92.90;102745.97;5075436;28;20431;-65
2021/08/25 03:04:13;;;;;;;41.83;24.73;;;;;;;13.37;93.23;102738.84;5076612;28;20384;-65
2021/08/25 03:06:38;;;;;;;44.15;25.85;;;;;;;13.40;92.95;102733.44;5075399;28;20024;-65
2021/08/25 03:09:03;;;;;;;37.85;24.23;;;;;;;13.41;93.00;102734.31;5075653;28;20047;-64
2021/08/25 03:11:28;;;;;;;37.08;22.58;;;;;;;13.41;92.90;102736.97;5075773;28;20027;-64
2021/08/25 03:13:54;;;;;;;37.60;23.60;;;;;;;13.41;92.93;102727.22;5075690;28;20098;-64
2021/08/25 03:16:20;;;;;;;42.08;24.63;;;;;;;13.45;92.97;102733.31;5077032;28;20124;-66
2021/08/25 03:18:45;;;;;;;39.80;24.40;;;;;;;13.44;93.01;102732.44;5075194;28;20082;-64
2021/08/25 03:21:10;;;;;;;36.05;24.40;;;;;;;13.44;92.88;102727.13;5075386;28;20056;-64
2021/08/25 03:23:36;;;;;;;39.22;23.27;;;;;;;13.45;93.25;102733.31;5075528;28;20040;-66
2021/08/25 03:26:01;;;;;;;43.33;24.08;;;;;;;13.46;92.95;102728.88;5074968;28;20028;-65
2021/08/25 03:28:26;;;;;;;43.38;24.60;;;;;;;13.48;93.07;102727.94;5074945;28;20074;-67
2021/08/25 03:30:56;;;;;;;39.10;24.52;;;;;;;13.50;92.83;102726.06;5075262;28;20071;-65
2021/08/25 03:33:22;;;;;;;41.33;25.00;;;;;;;13.54;92.89;102718.88;5075230;28;20025;-65
2021/08/25 03:35:47;;;;;;;47.10;26.15;;;;;;;13.57;92.87;102726.81;5075679;28;20434;-65
2021/08/25 03:38:12;;;;;;;36.45;23.35;;;;;;;13.56;92.86;102720.59;5057029;28;20075;-65
2021/08/25 03:40:38;;;;;;;39.58;24.88;;;;;;;13.57;92.82;102722.34;5074544;28;20025;-65
2021/08/25 03:43:03;;;;;;;42.33;25.92;;;;;;;13.62;92.92;102726.66;5074765;28;20433;-66
2021/08/25 03:45:28;;;;;;;40.22;24.77;;;;;;;13.65;93.05;102721.28;5074937;28;20020;-64
2021/08/25 03:47:54;;;;;;;42.88;25.77;;;;;;;13.67;92.91;102714.09;5090990;28;20050;-66
2021/08/25 03:50:19;;;;;;;45.60;26.35;;;;;;;13.68;93.01;102721.16;5095116;28;20511;-65
2021/08/25 03:52:44;;;;;;;44.58;25.95;;;;;;;13.70;92.92;102706.03;5094991;28;20098;-65
2021/08/25 03:55:10;;;;;;;43.03;25.48;;;;;;;13.70;92.90;102714.03;5095038;28;20024;-65
2021/08/25 03:57:35;;;;;;;44.42;25.80;;;;;;;13.73;92.71;102712.16;5082504;28;20028;-65
2021/08/25 04:00:00;;;;;;;39.47;24.45;;;;;;;13.74;92.72;102711.22;5074415;28;20040;-66
2021/08/25 04:02:26;;;;;;;51.50;26.58;;;;;;;13.73;92.77;102706.84;5074579;28;20086;-64
2021/08/25 04:04:51;;;;;;;78.05;27.17;;;;;;;13.73;93.09;102708.59;5074607;28;20127;-66
2021/08/25 04:07:16;;;;;;;51.92;27.67;;;;;;;13.74;93.02;102713.03;5074490;28;20025;-65
2021/08/25 04:09:42;;;;;;;82.13;27.38;;;;;;;13.75;93.06;102701.47;5083681;28;20020;-65
2021/08/25 04:12:08;;;;;;;50.97;27.85;;;;;;;13.75;93.30;102704.97;5074577;28;20020;-65
2021/08/25 04:14:33;;;;;;;49.50;28.67;;;;;;;13.75;93.33;102690.81;5074281;28;20415;-65
2021/08/25 04:16:59;;;;;;;49.75;27.35;;;;;;;13.80;93.26;102691.53;5074364;28;20422;-65
2021/08/25 04:19:24;;;;;;;55.28;30.20;;;;;;;13.84;93.59;102689.69;5067962;28;20036;-65
2021/08/25 04:21:50;;;;;;;60.33;29.42;;;;;;;13.90;93.69;102686.81;5066925;28;20045;-66
2021/08/25 04:24:15;;;;;;;47.25;26.25;;;;;;;13.94;93.50;102688.50;5074147;28;20025;-65
2021/08/25 04:26:40;;;;;;;51.47;29.17;;;;;;;14.01;93.76;102679.38;5074258;28;20056;-65
2021/08/25 04:29:06;;;;;;;52.17;29.50;;;;;;;14.08;93.54;102685.41;5074801;28;20397;-64
2021/08/25 04:31:31;;;;;;;68.78;28.55;;;;;;;14.13;93.32;102685.25;5073921;28;20107;-66
2021/08/25 04:33:56;;;;;;;70.15;28.58;;;;;;;14.08;92.82;102688.09;5073603;28;20032;-65
2021/08/25 04:36:21;;;;;;;79.45;29.27;;;;;;;14.04;92.39;102683.72;5073843;28;20033;-65
2021/08/25 04:38:47;;;;;;;157.35;31.92;;;;;;;13.97;93.07;102683.06;5073526;28;20116;-66
2021/08/25 04:41:12;;;;;;;56.92;29.73;;;;;;;13.93;93.20;102679.59;5091554;28;20464;-64
2021/08/25 04:43:37;;;;;;;77.70;31.90;;;;;;;13.92;93.71;102688.50;5093910;28;20536;-65
2021/08/25 04:46:03;;;;;;;73.40;32.70;;;;;;;13.92;93.95;102688.50;5093936;28;20049;-65
2021/08/25 04:48:28;;;;;;;137.52;32.03;;;;;;;13.94;93.93;102693.81;5091304;28;20035;-65
2021/08/25 04:50:54;;;;;;;173.88;32.88;;;;;;;13.93;94.27;102692.06;5074628;28;20029;-66
2021/08/25 04:53:19;;;;;;;59.20;31.95;;;;;;;13.89;94.12;102683.28;5072865;28;20033;-66
2021/08/25 04:55:44;;;;;;;139.32;32.25;;;;;;;13.89;94.10;102685.09;5073471;28;20028;-69
2021/08/25 04:58:10;;;;;;;116.97;32.55;;;;;;;13.85;94.06;102684.28;5073658;28;20461;-66
2021/08/25 05:00:35;;;;;;;80.05;32.25;;;;;;;13.87;94.43;102679.78;5060454;28;20098;-62
2021/08/25 05:03:01;;;;;;;99.93;33.65;;;;;;;13.90;94.46;102689.47;5064320;28;20473;-63
2021/08/25 05:05:27;;;;;;;58.88;33.42;;;;;;;13.93;94.88;102676.94;5064472;28;20469;-65
2021/08/25 05:07:52;;;;;;;105.15;32.45;;;;;;;13.95;94.53;102684.88;5093433;28;20120;-66
2021/08/25 05:10:17;;;;;;;84.45;33.67;;;;;;;13.97;94.61;102680.41;5084644;28;20099;-65
2021/08/25 05:12:44;;;;;;;176.25;34.28;;;;;;;13.99;94.48;102675.91;5074191;28;20040;-65
2021/08/25 05:15:10;;;;;;;86.65;31.65;;;;;;;13.94;94.14;102675.16;5072877;28;20029;-66
2021/08/25 05:17:35;;;;;;;68.28;33.00;;;;;;;13.98;94.37;102675.91;5073339;28;20066;-64
2021/08/25 05:20:06;;;;;;;102.55;34.10;;;;;;;14.03;94.42;102680.22;5072631;28;20032;-64
2021/08/25 05:22:33;;;;;;;133.68;32.83;;;;;;;14.00;94.63;102685.66;5074019;28;20032;-65
2021/08/25 05:24:58;;;;;;;59.58;32.35;;;;;;;14.04;94.33;102689.06;5073297;28;20078;-65
2021/08/25 05:27:23;;;;;;;94.32;32.63;;;;;;;14.08;94.48;102675.63;5074213;28;20061;-66
2021/08/25 05:29:49;;;;;;;85.95;32.70;;;;;;;14.16;94.59;102690.50;5072743;28;20021;-66
2021/08/25 05:32:14;;;;;;;74.47;30.35;;;;;;;14.19;94.04;102693.06;5072582;28;20473;-65
2021/08/25 05:34:39;;;;;;;72.00;28.50;;;;;;;14.18;93.38;102688.66;5054891;28;20051;-67
2021/08/25 05:37:05;;;;;;;75.82;29.75;;;;;;;14.29;93.72;102680.34;5070769;28;20087;-63
2021/08/25 05:39:30;;;;;;;62.90;28.50;;;;;;;14.25;93.29;102688.41;5073802;28;20060;-64
2021/08/25 05:41:55;;;;;;;57.55;30.52;;;;;;;14.33;93.74;102687.31;5071082;28;20143;-64
2021/08/25 05:44:21;;;;;;;94.07;27.88;;;;;;;14.28;92.79;102686.59;5078162;28;20035;-65
2021/08/25 05:46:46;;;;;;;66.57;28.73;;;;;;;14.30;92.82;102687.44;5092810;28;20024;-64
2021/08/25 05:49:12;;;;;;;69.15;28.85;;;;;;;14.29;93.23;102694.53;5090978;28;20024;-65
2021/08/25 05:51:37;;;;;;;56.17;30.40;;;;;;;14.33;93.31;102685.50;5073390;28;20069;-63
2021/08/25 05:54:02;;;;;;;56.05;27.95;;;;;;;14.39;93.06;102685.31;5092990;28;20146;-64
2021/08/25 05:56:28;;;;;;;53.60;30.60;;;;;;;14.45;92.92;102683.38;5083924;28;20024;-63
2021/08/25 05:58:53;;;;;;;75.55;36.28;;;;;;;14.44;92.87;102687.84;5071781;28;20028;-64
2021/08/25 06:01:18;;;;;;;74.63;37.97;;;;;;;14.51;93.15;102691.19;5073659;28;20028;-65
2021/08/25 06:03:44;;;;;;;70.25;40.60;;;;;;;14.58;93.28;102693.63;5072026;28;20120;-63
2021/08/25 06:06:11;;;;;;;81.03;40.95;;;;;;;14.66;93.33;102693.41;5071387;28;20024;-64
2021/08/25 06:08:37;;;;;;;75.05;41.08;;;;;;;14.79;93.58;102693.00;5082965;28;20028;-64
2021/08/25 06:11:03;;;;;;;75.65;36.95;;;;;;;14.86;93.00;102681.19;5090887;28;20036;-63
2021/08/25 06:13:28;;;;;;;62.00;35.38;;;;;;;14.90;92.41;102691.72;5075365;28;20494;-65
2021/08/25 06:15:53;;;;;;;73.88;31.70;;;;;;;14.89;91.77;102681.97;5072127;28;20028;-64
2021/08/25 06:18:19;;;;;;;52.05;29.65;;;;;;;14.92;92.16;102689.00;5071910;28;20021;-64
2021/08/25 06:20:44;;;;;;;109.32;28.88;;;;;;;14.89;91.61;102684.63;5073023;28;20041;-65
2021/08/25 06:23:11;;;;;;;53.33;27.77;;;;;;;14.88;91.61;102682.88;5071706;28;20039;-64
2021/08/25 06:25:36;;;;;;;55.83;28.35;;;;;;;14.96;91.49;102685.31;5072412;28;20024;-64
2021/08/25 06:28:02;;;;;;;60.67;29.92;;;;;;;15.00;91.60;102686.06;5060560;28;20492;-63
2021/08/25 06:30:27;;;;;;;62.22;30.30;;;;;;;15.09;91.98;102691.09;5055980;28;20089;-64
2021/08/25 06:32:53;;;;;;;58.30;28.58;;;;;;;15.19;90.93;102687.19;5073462;28;20111;-65
2021/08/25 06:35:20;;;;;;;46.38;27.13;;;;;;;15.32;91.26;102692.09;5072388;28;20029;-66
2021/08/25 06:37:45;;;;;;;44.80;26.15;;;;;;;15.28;90.06;102701.13;5071616;28;20073;-65
2021/08/25 06:40:12;;;;;;;64.43;27.73;;;;;;;15.29;90.34;102697.53;5072003;28;20029;-66
2021/08/25 06:42:38;;;;;;;60.33;27.92;;;;;;;15.28;90.22;102699.34;5078989;28;20028;-65
2021/08/25 06:45:05;;;;;;;47.83;28.80;;;;;;;15.28;90.55;102709.13;5090340;28;20031;-64
2021/08/25 06:47:30;;;;;;;45.95;26.60;;;;;;;15.44;91.41;102698.81;5091962;28;20051;-66
2021/08/25 06:49:56;;;;;;;38.30;25.95;;;;;;;15.59;89.09;102705.38;5079363;28;20468;-65
2021/08/25 06:52:21;;;;;;;41.15;26.63;;;;;;;15.66;88.90;102702.41;5072019;28;20032;-65
2021/08/25 06:54:46;;;;;;;38.92;24.88;;;;;;;15.66;88.17;102706.91;5082217;28;20102;-66
2021/08/25 06:57:11;;;;;;;37.28;25.17;;;;;;;15.75;88.17;102708.38;5072174;28;20025;-63
2021/08/25 06:59:37;;;;;;;39.10;23.65;;;;;;;15.80;87.05;102706.41;5071635;28;20028;-64
2021/08/25 07:02:03;;;;;;;35.28;23.50;;;;;;;15.82;87.49;102702.78;5071718;28;20468;-64
2021/08/25 07:04:28;;;;;;;34.88;22.23;;;;;;;15.86;87.69;102701.72;5075068;28;20436;-65
2021/08/25 07:06:53;;;;;;;41.22;25.55;;;;;;;15.97;87.74;102697.78;5070997;28;20543;-66
2021/08/25 07:09:19;;;;;;;39.03;24.75;;;;;;;15.88;87.31;102691.88;5071754;28;20024;-66
2021/08/25 07:11:44;;;;;;;37.40;24.13;;;;;;;15.88;87.93;102694.53;5072315;28;20024;-65
2021/08/25 07:14:09;;;;;;;40.58;24.55;;;;;;;15.97;87.52;102704.00;5071813;28;20033;-65
2021/08/25 07:16:35;;;;;;;39.00;24.25;;;;;;;16.10;87.06;102700.84;5074404;28;20028;-64
2021/08/25 07:19:02;;;;;;;38.85;26.02;;;;;;;16.00;87.03;102695.88;5084880;28;20028;-64
2021/08/25 07:21:27;;;;;;;39.88;25.88;;;;;;;16.15;88.96;102691.75;5078963;28;20043;-62
2021/08/25 07:23:52;;;;;;;39.38;25.08;;;;;;;16.37;87.00;102690.91;5077848;28;20032;-66
2021/08/25 07:26:18;;;;;;;36.88;24.65;;;;;;;16.25;85.14;102696.72;5074959;28;20085;-65
2021/08/25 07:28:44;;;;;;;35.50;24.25;;;;;;;16.17;85.81;102708.56;5074819;28;20074;-65
2021/08/25 07:31:14;;;;;;;35.00;23.05;;;;;;;16.15;85.20;102699.75;5074722;28;20081;-66
2021/08/25 07:33:40;;;;;;;35.17;23.63;;;;;;;16.17;85.22;102708.56;5074914;28;20033;-65
2021/08/25 07:36:09;;;;;;;37.05;22.90;;;;;;;16.28;85.66;102713.50;5080577;28;20115;-64
2021/08/25 07:38:35;;;;;;;34.25;22.52;;;;;;;16.47;83.97;102699.41;5086646;28;20069;-65
2021/08/25 07:41:01;;;;;;;33.42;21.23;;;;;;;16.62;83.24;102708.63;5075324;28;20115;-65
2021/08/25 07:43:26;;;;;;;32.25;19.30;;;;;;;16.94;81.49;102695.75;5074678;28;20029;-66
2021/08/25 07:45:52;;;;;;;29.95;20.45;;;;;;;16.91;81.88;102694.06;5075080;28;20358;-66
2021/08/25 07:48:18;;;;;;;29.92;20.55;;;;;;;16.89;82.01;102693.22;5078918;28;20159;-64
2021/08/25 07:50:43;;;;;;;31.33;21.48;;;;;;;16.89;80.86;102695.88;5077466;28;20028;-64
2021/08/25 07:53:08;;;;;;;31.30;20.00;;;;;;;16.92;80.99;102697.59;5074302;28;20035;-66
2021/08/25 07:55:34;;;;;;;30.35;20.70;;;;;;;16.81;81.04;102700.72;5074957;28;20020;-66
2021/08/25 07:57:59;;;;;;;32.03;21.85;;;;;;;17.02;80.44;102699.84;5074811;28;20025;-63
2021/08/25 08:00:24;;;;;;;30.70;21.92;;;;;;;17.35;79.83;102699.31;5078105;28;20035;-66
2021/08/25 08:02:50;;;;;;;23.90;17.60;;;;;;;17.78;78.29;102695.66;5095283;28;20460;-64
2021/08/25 08:05:15;;;;;;;30.13;20.42;;;;;;;17.91;76.89;102695.97;5083790;28;20112;-62
2021/08/25 08:07:41;;;;;;;27.73;19.65;;;;;;;17.77;77.45;102697.44;5073886;28;20036;-64
2021/08/25 08:10:07;;;;;;;27.85;21.10;;;;;;;17.85;77.03;102694.41;5074364;28;20040;-65
2021/08/25 08:12:32;;;;;;;25.05;18.77;;;;;;;17.94;77.63;102694.03;5074633;28;20016;-64
2021/08/25 08:14:57;;;;;;;30.67;21.42;;;;;;;18.12;77.47;102691.41;5073869;28;20476;-66
2021/08/25 08:17:23;;;;;;;24.17;19.02;;;;;;;18.45;76.26;102685.38;5075800;28;20137;-64
2021/08/25 08:19:49;;;;;;;27.67;19.63;;;;;;;18.51;75.05;102680.56;5088010;28;20012;-64
2021/08/25 08:22:15;;;;;;;23.50;18.20;;;;;;;18.48;74.82;102682.56;5067271;28;20040;-63
2021/08/25 08:24:40;;;;;;;27.30;20.02;;;;;;;18.28;75.46;102679.03;5058919;28;20040;-65
2021/08/25 08:27:07;;;;;;;24.63;19.52;;;;;;;18.34;76.29;102688.59;5074843;28;20449;-65
2021/08/25 08:29:34;;;;;;;25.58;18.55;;;;;;;18.46;75.22;102677.25;5084270;28;20100;-64
2021/08/25 08:32:05;;;;;;;24.52;16.92;;;;;;;18.71;75.04;102672.47;5068086;28;20033;-65
2021/08/25 08:34:30;;;;;;;23.50;18.50;;;;;;;19.05;74.82;102671.66;5083843;28;20024;-63
2021/08/25 08:36:55;;;;;;;23.08;17.75;;;;;;;19.47;74.51;102672.19;5074085;28;20028;-66
2021/08/25 08:39:21;;;;;;;21.75;16.58;;;;;;;19.89;72.18;102662.75;5069592;28;20025;-63
2021/08/25 08:41:46;;;;;;;21.25;16.73;;;;;;;19.97;69.50;102668.59;5073777;28;20029;-63
2021/08/25 08:44:16;;;;;;;21.08;15.00;;;;;;;20.12;70.14;102661.47;5078127;28;20511;-65
2021/08/25 08:46:43;;;;;;;20.10;15.70;;;;;;;20.25;69.35;102674.22;5073415;28;20032;-64
2021/08/25 08:49:09;;;;;;;20.15;15.27;;;;;;;19.97;67.85;102675.78;5073351;28;20029;-65
2021/08/25 08:51:36;;;;;;;21.25;14.98;;;;;;;19.18;70.26;102661.16;5069790;28;20028;-66
2021/08/25 08:54:02;;;;;;;17.33;13.13;;;;;;;19.23;69.34;102666.28;5068605;28;20027;-65
2021/08/25 08:56:27;;;;;;;16.35;12.07;;;;;;;19.32;68.55;102655.06;5081738;28;20032;-64
2021/08/25 08:58:54;;;;;;;17.85;12.50;;;;;;;19.34;68.75;102655.84;5072498;28;20025;-64
2021/08/25 09:01:21;;;;;;;19.45;14.20;;;;;;;19.45;66.79;102650.78;5069015;28;20093;-64
2021/08/25 09:03:46;;;;;;;17.55;13.23;;;;;;;19.69;66.89;102650.38;5062871;28;20059;-63
2021/08/25 09:06:12;;;;;;;13.05;10.30;;;;;;;20.07;64.74;102650.09;5072236;28;20476;-65
2021/08/25 09:08:39;;;;;;;14.18;11.43;;;;;;;20.26;65.06;102649.94;5070229;28;20029;-64
2021/08/25 09:11:13;;;;;;;14.90;10.25;;;;;;;20.24;63.18;102642.91;5067071;28;20471;-64
2021/08/25 09:13:48;;;;;;;15.93;11.00;;;;;;;20.11;64.07;102642.72;5069193;28;20028;-64
2021/08/25 09:16:34;;;;;;;15.48;10.52;;;;;;;19.88;63.35;102635.97;5071743;28;20088;-64
2021/08/25 09:19:00;;;;;;;12.65;9.30;;;;;;;20.30;61.92;102629.97;5071788;28;20020;-66
2021/08/25 09:21:34;;;;;;;14.85;10.13;;;;;;;21.49;58.84;102629.22;5071783;28;20049;-66
2021/08/25 09:23:59;;;;;;;12.18;9.75;;;;;;;22.59;54.48;102633.81;5071364;28;20033;-66
2021/08/25 09:26:26;;;;;;;12.13;9.05;;;;;;;23.18;53.54;102632.53;5072287;28;20087;-65
2021/08/25 09:28:52;;;;;;;12.65;8.70;;;;;;;24.14;51.52;102622.97;5072142;28;20107;-64
2021/08/25 09:31:18;;;;;;;11.07;8.13;;;;;;;25.14;49.42;102623.47;5079585;28;20109;-63
2021/08/25 09:33:46;;;;;;;12.23;8.27;;;;;;;25.36;46.67;102629.94;5072352;28;20078;-65
2021/08/25 09:36:17;;;;;;;11.05;8.40;;;;;;;24.95;47.21;102617.75;5067817;28;20484;-64
2021/08/25 09:38:57;;;;;;;12.05;8.45;;;;;;;25.28;47.25;102619.66;5071464;28;20028;-66
2021/08/25 09:41:23;;;;;;;10.43;6.70;;;;;;;26.32;44.42;102619.44;5072668;28;20040;-65
2021/08/25 09:43:51;;;;;;;9.77;6.25;;;;;;;26.64;43.74;102615.81;5073596;28;20025;-66
2021/08/25 09:46:25;;;;;;;10.98;5.97;;;;;;;27.28;41.22;102619.38;5064446;28;20059;-63
2021/08/25 09:48:52;;;;;;;9.80;5.80;;;;;;;27.28;40.59;102617.50;5054477;28;20033;-64
2021/08/25 09:51:22;;;;;;;9.30;4.85;;;;;;;27.17;40.93;102631.19;5070258;28;20095;-63
2021/08/25 09:53:50;;;;;;;9.32;5.75;;;;;;;26.54;42.04;102628.47;5083109;28;20032;-64
2021/08/25 09:56:34;;;;;;;8.55;5.40;;;;;;;26.53;42.92;102634.91;5062503;28;20027;-63
2021/08/25 09:59:01;;;;;;;7.97;4.95;;;;;;;27.22;42.57;102628.09;5059576;28;20504;-64
2021/08/25 10:01:27;;;;;;;8.90;4.82;;;;;;;27.48;40.33;102631.22;5071815;28;20142;-65
2021/08/25 10:03:53;;;;;;;10.85;4.97;;;;;;;26.51;42.37;102624.16;5053627;28;20492;-64
2021/08/25 10:06:20;;;;;;;10.27;5.32;;;;;;;26.47;42.12;102622.69;5076312;28;20024;-65
2021/08/25 10:08:46;;;;;;;10.65;4.28;;;;;;;26.38;42.54;102618.03;5065980;28;20468;-63
2021/08/25 10:11:13;;;;;;;9.15;4.55;;;;;;;25.83;44.05;102625.19;5070789;28;20043;-65
2021/08/25 10:13:40;;;;;;;8.38;4.50;;;;;;;25.02;46.55;102619.84;5071861;28;20024;-67
2021/08/25 10:16:10;;;;;;;9.82;4.63;;;;;;;24.12;48.93;102619.50;5071375;28;20064;-64
2021/08/25 10:18:40;;;;;;;10.40;4.17;;;;;;;23.88;49.36;102614.91;5070401;28;20436;-66
2021/08/25 10:21:36;;;;;;;9.68;4.60;;;;;;;24.48;46.78;102605.03;5068666;28;20502;-64
2021/08/25 10:24:06;;;;;;;8.95;4.50;;;;;;;25.73;44.18;102597.09;5068958;28;20036;-67
2021/08/25 10:26:59;;;;;;;10.32;5.20;;;;;;;26.15;42.19;102597.28;5071592;28;20480;-66
2021/08/25 10:29:26;;;;;;;7.32;4.60;;;;;;;26.67;41.49;102591.94;5065141;28;20041;-64
2021/08/25 10:31:56;;;;;;;7.80;4.60;;;;;;;26.33;41.58;102586.69;5071354;28;20024;-64
2021/08/25 10:34:26;;;;;;;8.48;4.10;;;;;;;27.02;40.82;102564.56;5071813;28;20028;-63
2021/08/25 10:37:10;;;;;;;9.18;5.20;;;;;;;27.37;40.13;102561.44;5059969;28;20086;-64
2021/08/25 10:39:37;;;;;;;7.35;4.70;;;;;;;27.89;39.36;102566.75;5067271;28;20024;-65
2021/08/25 10:42:04;;;;;;;7.28;4.20;;;;;;;26.42;40.85;102567.88;5058989;28;20029;-66
2021/08/25 10:44:42;;;;;;;6.75;4.05;;;;;;;24.72;45.78;102566.25;5066436;28;20024;-64
2021/08/25 10:47:12;;;;;;;8.52;4.15;;;;;;;23.94;47.24;102565.78;5090364;28;20028;-65
2021/08/25 10:49:45;;;;;;;7.10;4.13;;;;;;;23.96;47.19;102566.53;5072354;28;20024;-64
2021/08/25 10:52:13;;;;;;;9.63;4.32;;;;;;;23.58;48.83;102572.03;5066822;28;20056;-63
2021/08/25 10:54:43;;;;;;;7.53;3.90;;;;;;;23.59;49.47;102573.78;5067548;28;20047;-66
2021/08/25 10:57:18;;;;;;;7.90;3.70;;;;;;;24.99;47.45;102559.63;5069939;28;20127;-64
2021/08/25 10:59:44;;;;;;;8.00;3.20;;;;;;;25.77;44.39;102551.56;5067300;28;20029;-64
2021/08/25 11:02:10;;;;;;;7.25;3.17;;;;;;;26.84;40.50;102557.03;5063252;28;20083;-64
2021/08/25 11:04:36;;;;;;;6.07;3.08;;;;;;;27.01;40.36;102550.13;5064363;28;20487;-65
2021/08/25 11:07:08;;;;;;;6.57;2.60;;;;;;;26.92;40.05;102548.19;5074969;28;20025;-65
2021/08/25 11:09:51;;;;;;;5.85;3.20;;;;;;;27.13;40.95;102545.44;5075322;28;20038;-65